Aspen-Gerbaz, Colorado
Current Conditions -  °F | °C
As of 3:53 PM on Friday 31 Oct 2014 (Local Time) from KASE Reporting Station
Clear Clear  
Wind Chill: 61°   Ceiling: Unl
Heat Index: 61°   Visibility: 10mi
Dew Point: 18°   Wind: 10mph
Humidity: 19%   Direction: 330°NNW
Pressure: 30.17"   Gusts: 17mph
Location:  39.1256°N, 106.797°W
Report Text: KASE 312153Z 33009G15KT 10SM CLR 16/M08 A3017 RMK AO2 SLP150 T01611078
Loading
Personal Weather Stations






























Interactive Weather Map
Tropical Storm Tracking
New forecast layout! Learn more

10-Day Weather Forecast

Advertisements
Track Severe Weather on mobile